sensor_id;sensor_type;location;lat;lon;timestamp;P1;durP1;ratioP1;P2;durP2;ratioP2
20014;SDS011;61787;42.022;23.078;2023-12-04T00:00:33;10.53;;;5.63;;
20014;SDS011;61787;42.022;23.078;2023-12-04T00:01:35;11.30;;;6.57;;
20014;SDS011;61787;42.022;23.078;2023-12-04T00:02:37;9.60;;;5.37;;
20014;SDS011;61787;42.022;23.078;2023-12-04T00:03:39;11.17;;;6.97;;
20014;SDS011;61787;42.022;23.078;2023-12-04T00:04:41;13.13;;;6.63;;
20014;SDS011;61787;42.022;23.078;2023-12-04T00:05:43;10.37;;;5.67;;
20014;SDS011;61787;42.022;23.078;2023-12-04T00:06:45;10.83;;;6.73;;
20014;SDS011;61787;42.022;23.078;2023-12-04T00:07:47;10.90;;;6.53;;
20014;SDS011;61787;42.022;23.078;2023-12-04T00:08:49;9.50;;;5.93;;
20014;SDS011;61787;42.022;23.078;2023-12-04T00:09:50;8.23;;;5.70;;
20014;SDS011;61787;42.022;23.078;2023-12-04T00:10:52;11.03;;;6.33;;
20014;SDS011;61787;42.022;23.078;2023-12-04T00:11:55;9.93;;;6.03;;
20014;SDS011;61787;42.022;23.078;2023-12-04T00:12:57;8.67;;;6.03;;
20014;SDS011;61787;42.022;23.078;2023-12-04T00:13:59;9.23;;;5.80;;
20014;SDS011;61787;42.022;23.078;2023-12-04T00:15:01;12.73;;;6.30;;
20014;SDS011;61787;42.022;23.078;2023-12-04T00:16:03;11.43;;;6.63;;
20014;SDS011;61787;42.022;23.078;2023-12-04T00:17:05;10.77;;;6.30;;
20014;SDS011;61787;42.022;23.078;2023-12-04T00:18:06;9.27;;;5.80;;
20014;SDS011;61787;42.022;23.078;2023-12-04T00:19:08;6.77;;;5.20;;
20014;SDS011;61787;42.022;23.078;2023-12-04T00:20:10;9.50;;;6.10;;
20014;SDS011;61787;42.022;23.078;2023-12-04T00:21:12;11.43;;;5.90;;
20014;SDS011;61787;42.022;23.078;2023-12-04T00:22:14;11.43;;;6.27;;
20014;SDS011;61787;42.022;23.078;2023-12-04T00:23:16;11.60;;;6.90;;
20014;SDS011;61787;42.022;23.078;2023-12-04T00:24:17;8.93;;;6.10;;
20014;SDS011;61787;42.022;23.078;2023-12-04T00:25:19;9.67;;;5.77;;
20014;SDS011;61787;42.022;23.078;2023-12-04T00:26:20;12.53;;;6.43;;
20014;SDS011;61787;42.022;23.078;2023-12-04T00:27:22;11.30;;;6.53;;
20014;SDS011;61787;42.022;23.078;2023-12-04T00:28:28;12.33;;;6.97;;
20014;SDS011;61787;42.022;23.078;2023-12-04T00:29:30;12.67;;;6.70;;
20014;SDS011;61787;42.022;23.078;2023-12-04T00:30:31;12.50;;;6.70;;
20014;SDS011;61787;42.022;23.078;2023-12-04T00:31:33;12.23;;;7.30;;
20014;SDS011;61787;42.022;23.078;2023-12-04T00:32:35;11.03;;;6.90;;
20014;SDS011;61787;42.022;23.078;2023-12-04T00:33:37;11.13;;;6.33;;
20014;SDS011;61787;42.022;23.078;2023-12-04T00:34:39;11.73;;;6.70;;
20014;SDS011;61787;42.022;23.078;2023-12-04T00:35:40;11.63;;;6.87;;
20014;SDS011;61787;42.022;23.078;2023-12-04T00:36:42;10.60;;;6.20;;
20014;SDS011;61787;42.022;23.078;2023-12-04T00:37:44;11.03;;;6.70;;
20014;SDS011;61787;42.022;23.078;2023-12-04T00:38:45;11.97;;;7.23;;
20014;SDS011;61787;42.022;23.078;2023-12-04T00:39:47;9.90;;;6.67;;
20014;SDS011;61787;42.022;23.078;2023-12-04T00:40:49;13.97;;;6.33;;
20014;SDS011;61787;42.022;23.078;2023-12-04T00:41:50;9.53;;;6.70;;
20014;SDS011;61787;42.022;23.078;2023-12-04T00:42:52;11.20;;;6.30;;
20014;SDS011;61787;42.022;23.078;2023-12-04T00:43:54;9.87;;;6.50;;
20014;SDS011;61787;42.022;23.078;2023-12-04T00:44:55;9.53;;;6.60;;
20014;SDS011;61787;42.022;23.078;2023-12-04T00:45:57;9.03;;;6.47;;
20014;SDS011;61787;42.022;23.078;2023-12-04T00:46:59;11.73;;;7.07;;
20014;SDS011;61787;42.022;23.078;2023-12-04T00:48:01;12.13;;;6.87;;
20014;SDS011;61787;42.022;23.078;2023-12-04T00:49:03;10.07;;;6.50;;
20014;SDS011;61787;42.022;23.078;2023-12-04T00:50:05;9.97;;;6.63;;
20014;SDS011;61787;42.022;23.078;2023-12-04T00:51:07;8.67;;;6.17;;
20014;SDS011;61787;42.022;23.078;2023-12-04T00:52:09;9.50;;;6.13;;
20014;SDS011;61787;42.022;23.078;2023-12-04T00:53:11;9.60;;;6.30;;
20014;SDS011;61787;42.022;23.078;2023-12-04T00:54:12;10.80;;;6.30;;
20014;SDS011;61787;42.022;23.078;2023-12-04T00:55:14;11.30;;;6.27;;
20014;SDS011;61787;42.022;23.078;2023-12-04T00:56:16;11.00;;;6.30;;
20014;SDS011;61787;42.022;23.078;2023-12-04T00:57:17;10.60;;;5.93;;
20014;SDS011;61787;42.022;23.078;2023-12-04T00:58:19;12.97;;;6.53;;
20014;SDS011;61787;42.022;23.078;2023-12-04T00:59:21;8.80;;;5.83;;
20014;SDS011;61787;42.022;23.078;2023-12-04T01:00:22;12.53;;;6.30;;
20014;SDS011;61787;42.022;23.078;2023-12-04T01:01:25;9.90;;;6.30;;
20014;SDS011;61787;42.022;23.078;2023-12-04T01:02:26;10.67;;;5.93;;
20014;SDS011;61787;42.022;23.078;2023-12-04T01:03:28;9.17;;;6.03;;
20014;SDS011;61787;42.022;23.078;2023-12-04T01:04:30;9.70;;;5.60;;
20014;SDS011;61787;42.022;23.078;2023-12-04T01:05:32;9.43;;;5.90;;
20014;SDS011;61787;42.022;23.078;2023-12-04T01:06:35;10.37;;;5.50;;
20014;SDS011;61787;42.022;23.078;2023-12-04T01:07:37;11.37;;;6.20;;
20014;SDS011;61787;42.022;23.078;2023-12-04T01:08:38;13.23;;;6.30;;
20014;SDS011;61787;42.022;23.078;2023-12-04T01:09:40;9.17;;;5.83;;
20014;SDS011;61787;42.022;23.078;2023-12-04T01:10:42;9.07;;;5.73;;
20014;SDS011;61787;42.022;23.078;2023-12-04T01:11:43;10.13;;;5.83;;
20014;SDS011;61787;42.022;23.078;2023-12-04T01:12:45;9.27;;;6.10;;
20014;SDS011;61787;42.022;23.078;2023-12-04T01:13:47;10.40;;;6.60;;
20014;SDS011;61787;42.022;23.078;2023-12-04T01:14:49;8.07;;;5.77;;
20014;SDS011;61787;42.022;23.078;2023-12-04T01:15:50;10.40;;;5.60;;
20014;SDS011;61787;42.022;23.078;2023-12-04T01:16:52;9.67;;;5.77;;
20014;SDS011;61787;42.022;23.078;2023-12-04T01:17:54;13.07;;;6.63;;
20014;SDS011;61787;42.022;23.078;2023-12-04T01:18:56;10.17;;;6.50;;
20014;SDS011;61787;42.022;23.078;2023-12-04T01:19:58;7.93;;;5.60;;
20014;SDS011;61787;42.022;23.078;2023-12-04T01:20:59;11.53;;;6.40;;
20014;SDS011;61787;42.022;23.078;2023-12-04T01:22:01;9.33;;;6.40;;
20014;SDS011;61787;42.022;23.078;2023-12-04T01:23:03;10.17;;;6.20;;
20014;SDS011;61787;42.022;23.078;2023-12-04T01:24:04;9.87;;;6.13;;
20014;SDS011;61787;42.022;23.078;2023-12-04T01:25:07;9.23;;;6.20;;
20014;SDS011;61787;42.022;23.078;2023-12-04T01:26:09;10.77;;;6.23;;
20014;SDS011;61787;42.022;23.078;2023-12-04T01:27:11;9.17;;;6.23;;
20014;SDS011;61787;42.022;23.078;2023-12-04T01:28:14;11.77;;;6.60;;
20014;SDS011;61787;42.022;23.078;2023-12-04T01:29:15;7.37;;;5.87;;
20014;SDS011;61787;42.022;23.078;2023-12-04T01:30:17;10.67;;;6.53;;
20014;SDS011;61787;42.022;23.078;2023-12-04T01:31:19;10.17;;;6.10;;
20014;SDS011;61787;42.022;23.078;2023-12-04T01:32:20;9.93;;;5.93;;
20014;SDS011;61787;42.022;23.078;2023-12-04T01:33:22;8.30;;;6.07;;
20014;SDS011;61787;42.022;23.078;2023-12-04T01:34:24;10.73;;;6.20;;
20014;SDS011;61787;42.022;23.078;2023-12-04T01:35:25;8.60;;;6.00;;
20014;SDS011;61787;42.022;23.078;2023-12-04T01:36:27;7.13;;;5.27;;
20014;SDS011;61787;42.022;23.078;2023-12-04T01:37:29;10.63;;;5.67;;
20014;SDS011;61787;42.022;23.078;2023-12-04T01:38:31;10.93;;;5.70;;
20014;SDS011;61787;42.022;23.078;2023-12-04T01:39:33;8.33;;;5.43;;
20014;SDS011;61787;42.022;23.078;2023-12-04T01:40:35;8.20;;;5.83;;
20014;SDS011;61787;42.022;23.078;2023-12-04T01:41:36;10.57;;;5.87;;
20014;SDS011;61787;42.022;23.078;2023-12-04T01:42:38;10.63;;;5.83;;
20014;SDS011;61787;42.022;23.078;2023-12-04T01:43:40;12.20;;;6.23;;
20014;SDS011;61787;42.022;23.078;2023-12-04T01:44:41;9.37;;;5.77;;
20014;SDS011;61787;42.022;23.078;2023-12-04T01:45:43;12.07;;;6.00;;
20014;SDS011;61787;42.022;23.078;2023-12-04T01:46:46;11.90;;;5.80;;
20014;SDS011;61787;42.022;23.078;2023-12-04T01:47:47;12.23;;;6.97;;
20014;SDS011;61787;42.022;23.078;2023-12-04T01:48:49;15.80;;;7.17;;
20014;SDS011;61787;42.022;23.078;2023-12-04T01:49:51;14.70;;;6.53;;
20014;SDS011;61787;42.022;23.078;2023-12-04T01:50:53;17.10;;;6.53;;
20014;SDS011;61787;42.022;23.078;2023-12-04T01:51:55;12.37;;;6.77;;
20014;SDS011;61787;42.022;23.078;2023-12-04T01:52:58;13.00;;;6.50;;
20014;SDS011;61787;42.022;23.078;2023-12-04T01:54:00;13.23;;;6.80;;
20014;SDS011;61787;42.022;23.078;2023-12-04T01:55:04;14.37;;;7.27;;
20014;SDS011;61787;42.022;23.078;2023-12-04T01:56:10;14.53;;;7.33;;
20014;SDS011;61787;42.022;23.078;2023-12-04T01:57:12;12.97;;;6.73;;
20014;SDS011;61787;42.022;23.078;2023-12-04T01:58:13;16.63;;;6.67;;
20014;SDS011;61787;42.022;23.078;2023-12-04T01:59:15;19.27;;;7.53;;
20014;SDS011;61787;42.022;23.078;2023-12-04T02:00:17;15.30;;;7.13;;
20014;SDS011;61787;42.022;23.078;2023-12-04T02:01:21;18.27;;;7.10;;
20014;SDS011;61787;42.022;23.078;2023-12-04T02:02:25;14.93;;;7.10;;
20014;SDS011;61787;42.022;23.078;2023-12-04T02:03:29;21.30;;;7.70;;
20014;SDS011;61787;42.022;23.078;2023-12-04T02:04:31;23.33;;;8.03;;
20014;SDS011;61787;42.022;23.078;2023-12-04T02:05:34;19.40;;;8.07;;
20014;SDS011;61787;42.022;23.078;2023-12-04T02:06:37;25.73;;;7.63;;
20014;SDS011;61787;42.022;23.078;2023-12-04T02:07:40;22.17;;;8.30;;
20014;SDS011;61787;42.022;23.078;2023-12-04T02:08:42;24.90;;;8.63;;
20014;SDS011;61787;42.022;23.078;2023-12-04T02:09:44;21.33;;;8.27;;
20014;SDS011;61787;42.022;23.078;2023-12-04T02:10:45;21.13;;;8.50;;
20014;SDS011;61787;42.022;23.078;2023-12-04T02:11:47;20.53;;;8.23;;
20014;SDS011;61787;42.022;23.078;2023-12-04T02:12:49;17.87;;;7.30;;
20014;SDS011;61787;42.022;23.078;2023-12-04T02:13:51;19.03;;;7.93;;
20014;SDS011;61787;42.022;23.078;2023-12-04T02:14:53;21.60;;;8.20;;
20014;SDS011;61787;42.022;23.078;2023-12-04T02:15:55;25.10;;;8.07;;
20014;SDS011;61787;42.022;23.078;2023-12-04T02:17:03;19.33;;;8.33;;
20014;SDS011;61787;42.022;23.078;2023-12-04T02:18:08;32.87;;;9.60;;
20014;SDS011;61787;42.022;23.078;2023-12-04T02:19:12;21.83;;;7.87;;
20014;SDS011;61787;42.022;23.078;2023-12-04T02:20:15;26.17;;;7.93;;
20014;SDS011;61787;42.022;23.078;2023-12-04T02:21:18;21.77;;;7.87;;
20014;SDS011;61787;42.022;23.078;2023-12-04T02:22:19;21.23;;;7.97;;
20014;SDS011;61787;42.022;23.078;2023-12-04T02:23:21;18.23;;;7.73;;
20014;SDS011;61787;42.022;23.078;2023-12-04T02:24:23;26.70;;;8.50;;
20014;SDS011;61787;42.022;23.078;2023-12-04T02:25:25;17.50;;;7.37;;
20014;SDS011;61787;42.022;23.078;2023-12-04T02:26:42;22.83;;;8.13;;
20014;SDS011;61787;42.022;23.078;2023-12-04T02:27:54;24.37;;;8.37;;
20014;SDS011;61787;42.022;23.078;2023-12-04T02:29:01;29.00;;;9.10;;
20014;SDS011;61787;42.022;23.078;2023-12-04T02:30:10;13.67;;;7.67;;
20014;SDS011;61787;42.022;23.078;2023-12-04T02:31:13;18.40;;;7.63;;
20014;SDS011;61787;42.022;23.078;2023-12-04T02:32:19;21.20;;;8.30;;
20014;SDS011;61787;42.022;23.078;2023-12-04T02:33:23;20.53;;;8.43;;
20014;SDS011;61787;42.022;23.078;2023-12-04T02:34:26;19.37;;;8.17;;
20014;SDS011;61787;42.022;23.078;2023-12-04T02:35:31;14.60;;;8.00;;
20014;SDS011;61787;42.022;23.078;2023-12-04T02:36:35;17.23;;;7.87;;
20014;SDS011;61787;42.022;23.078;2023-12-04T02:37:39;15.83;;;7.67;;
20014;SDS011;61787;42.022;23.078;2023-12-04T02:38:41;18.17;;;8.07;;
20014;SDS011;61787;42.022;23.078;2023-12-04T02:39:43;15.07;;;8.03;;
20014;SDS011;61787;42.022;23.078;2023-12-04T02:40:45;15.43;;;8.00;;
20014;SDS011;61787;42.022;23.078;2023-12-04T02:41:47;18.87;;;7.63;;
20014;SDS011;61787;42.022;23.078;2023-12-04T02:42:49;14.03;;;7.20;;
20014;SDS011;61787;42.022;23.078;2023-12-04T02:43:51;15.10;;;7.43;;
20014;SDS011;61787;42.022;23.078;2023-12-04T02:44:52;14.60;;;7.13;;
20014;SDS011;61787;42.022;23.078;2023-12-04T02:45:54;17.23;;;7.67;;
20014;SDS011;61787;42.022;23.078;2023-12-04T02:46:56;18.00;;;8.03;;
20014;SDS011;61787;42.022;23.078;2023-12-04T02:47:57;14.13;;;7.70;;
20014;SDS011;61787;42.022;23.078;2023-12-04T02:48:59;16.07;;;7.80;;
20014;SDS011;61787;42.022;23.078;2023-12-04T02:50:01;20.73;;;6.80;;
20014;SDS011;61787;42.022;23.078;2023-12-04T02:51:03;11.87;;;7.23;;
20014;SDS011;61787;42.022;23.078;2023-12-04T02:52:06;14.10;;;7.20;;
20014;SDS011;61787;42.022;23.078;2023-12-04T02:53:08;16.30;;;8.60;;
20014;SDS011;61787;42.022;23.078;2023-12-04T02:54:10;12.20;;;7.07;;
20014;SDS011;61787;42.022;23.078;2023-12-04T02:55:11;15.07;;;7.43;;
20014;SDS011;61787;42.022;23.078;2023-12-04T02:56:13;12.70;;;6.93;;
20014;SDS011;61787;42.022;23.078;2023-12-04T02:57:15;13.83;;;7.37;;
20014;SDS011;61787;42.022;23.078;2023-12-04T02:58:16;18.57;;;7.47;;
20014;SDS011;61787;42.022;23.078;2023-12-04T02:59:18;15.30;;;7.53;;
20014;SDS011;61787;42.022;23.078;2023-12-04T03:00:20;18.57;;;7.50;;
20014;SDS011;61787;42.022;23.078;2023-12-04T03:01:21;15.03;;;7.30;;
20014;SDS011;61787;42.022;23.078;2023-12-04T03:02:23;19.50;;;8.60;;
20014;SDS011;61787;42.022;23.078;2023-12-04T03:03:25;16.13;;;7.37;;
20014;SDS011;61787;42.022;23.078;2023-12-04T03:04:28;19.00;;;7.60;;
20014;SDS011;61787;42.022;23.078;2023-12-04T03:05:31;17.90;;;7.80;;
20014;SDS011;61787;42.022;23.078;2023-12-04T03:06:33;17.90;;;7.67;;
20014;SDS011;61787;42.022;23.078;2023-12-04T03:07:35;18.77;;;7.70;;
20014;SDS011;61787;42.022;23.078;2023-12-04T03:08:36;19.53;;;8.27;;
20014;SDS011;61787;42.022;23.078;2023-12-04T03:09:38;14.10;;;7.40;;
20014;SDS011;61787;42.022;23.078;2023-12-04T03:10:49;16.57;;;7.83;;
20014;SDS011;61787;42.022;23.078;2023-12-04T03:11:51;18.03;;;7.90;;
20014;SDS011;61787;42.022;23.078;2023-12-04T03:12:53;16.17;;;7.30;;
20014;SDS011;61787;42.022;23.078;2023-12-04T03:13:55;17.93;;;7.53;;
20014;SDS011;61787;42.022;23.078;2023-12-04T03:14:56;15.83;;;7.87;;
20014;SDS011;61787;42.022;23.078;2023-12-04T03:15:58;21.37;;;8.30;;
20014;SDS011;61787;42.022;23.078;2023-12-04T03:17:00;16.33;;;8.17;;
20014;SDS011;61787;42.022;23.078;2023-12-04T03:18:01;24.83;;;8.23;;
20014;SDS011;61787;42.022;23.078;2023-12-04T03:19:05;20.53;;;8.47;;
20014;SDS011;61787;42.022;23.078;2023-12-04T03:20:07;24.43;;;7.97;;
20014;SDS011;61787;42.022;23.078;2023-12-04T03:21:10;17.50;;;7.83;;
20014;SDS011;61787;42.022;23.078;2023-12-04T03:22:12;17.20;;;7.90;;
20014;SDS011;61787;42.022;23.078;2023-12-04T03:23:14;20.33;;;7.97;;
20014;SDS011;61787;42.022;23.078;2023-12-04T03:24:16;18.17;;;8.23;;
20014;SDS011;61787;42.022;23.078;2023-12-04T03:25:18;17.97;;;7.60;;
20014;SDS011;61787;42.022;23.078;2023-12-04T03:26:19;16.77;;;7.73;;
20014;SDS011;61787;42.022;23.078;2023-12-04T03:27:21;21.90;;;8.07;;
20014;SDS011;61787;42.022;23.078;2023-12-04T03:28:23;17.53;;;7.37;;
20014;SDS011;61787;42.022;23.078;2023-12-04T03:29:24;23.63;;;7.60;;
20014;SDS011;61787;42.022;23.078;2023-12-04T03:30:26;15.43;;;7.53;;
20014;SDS011;61787;42.022;23.078;2023-12-04T03:31:28;18.73;;;8.47;;
20014;SDS011;61787;42.022;23.078;2023-12-04T03:32:30;14.97;;;7.33;;
20014;SDS011;61787;42.022;23.078;2023-12-04T03:33:32;20.73;;;8.03;;
20014;SDS011;61787;42.022;23.078;2023-12-04T03:34:34;16.87;;;7.60;;
20014;SDS011;61787;42.022;23.078;2023-12-04T03:35:35;16.87;;;7.50;;
20014;SDS011;61787;42.022;23.078;2023-12-04T03:36:37;15.17;;;7.53;;
20014;SDS011;61787;42.022;23.078;2023-12-04T03:37:39;15.83;;;7.73;;
20014;SDS011;61787;42.022;23.078;2023-12-04T03:38:40;18.33;;;7.50;;
20014;SDS011;61787;42.022;23.078;2023-12-04T03:39:42;17.60;;;8.33;;
20014;SDS011;61787;42.022;23.078;2023-12-04T03:40:44;16.27;;;7.40;;
20014;SDS011;61787;42.022;23.078;2023-12-04T03:41:46;15.30;;;7.33;;
20014;SDS011;61787;42.022;23.078;2023-12-04T03:42:48;16.03;;;7.07;;
20014;SDS011;61787;42.022;23.078;2023-12-04T03:43:50;16.57;;;7.67;;
20014;SDS011;61787;42.022;23.078;2023-12-04T03:44:51;13.23;;;7.50;;
20014;SDS011;61787;42.022;23.078;2023-12-04T03:45:53;14.13;;;8.27;;
20014;SDS011;61787;42.022;23.078;2023-12-04T03:46:55;13.17;;;7.53;;
20014;SDS011;61787;42.022;23.078;2023-12-04T03:47:56;13.60;;;8.03;;
20014;SDS011;61787;42.022;23.078;2023-12-04T03:48:58;13.23;;;6.97;;
20014;SDS011;61787;42.022;23.078;2023-12-04T03:50:00;8.87;;;6.60;;
20014;SDS011;61787;42.022;23.078;2023-12-04T03:51:02;13.97;;;7.40;;
20014;SDS011;61787;42.022;23.078;2023-12-04T03:52:05;16.93;;;7.90;;
20014;SDS011;61787;42.022;23.078;2023-12-04T03:53:07;13.00;;;7.63;;
20014;SDS011;61787;42.022;23.078;2023-12-04T03:54:09;11.13;;;7.33;;
20014;SDS011;61787;42.022;23.078;2023-12-04T03:55:10;13.30;;;6.33;;
20014;SDS011;61787;42.022;23.078;2023-12-04T03:56:12;14.10;;;7.10;;
20014;SDS011;61787;42.022;23.078;2023-12-04T03:57:14;12.20;;;7.53;;
20014;SDS011;61787;42.022;23.078;2023-12-04T03:58:16;14.37;;;7.17;;
20014;SDS011;61787;42.022;23.078;2023-12-04T03:59:17;12.17;;;7.17;;
20014;SDS011;61787;42.022;23.078;2023-12-04T04:00:19;14.00;;;7.20;;
20014;SDS011;61787;42.022;23.078;2023-12-04T04:01:21;19.90;;;8.43;;
20014;SDS011;61787;42.022;23.078;2023-12-04T04:02:23;13.90;;;7.63;;
20014;SDS011;61787;42.022;23.078;2023-12-04T04:03:24;13.57;;;7.90;;
20014;SDS011;61787;42.022;23.078;2023-12-04T04:04:26;18.37;;;8.23;;
20014;SDS011;61787;42.022;23.078;2023-12-04T04:05:28;12.33;;;7.40;;
20014;SDS011;61787;42.022;23.078;2023-12-04T04:06:30;13.23;;;7.60;;
20014;SDS011;61787;42.022;23.078;2023-12-04T04:07:32;13.37;;;8.40;;
20014;SDS011;61787;42.022;23.078;2023-12-04T04:08:33;15.23;;;8.20;;
20014;SDS011;61787;42.022;23.078;2023-12-04T04:09:35;14.93;;;8.40;;
20014;SDS011;61787;42.022;23.078;2023-12-04T04:10:37;12.47;;;7.87;;
20014;SDS011;61787;42.022;23.078;2023-12-04T04:11:39;12.50;;;8.10;;
20014;SDS011;61787;42.022;23.078;2023-12-04T04:12:41;17.20;;;9.10;;
20014;SDS011;61787;42.022;23.078;2023-12-04T04:13:42;14.43;;;7.73;;
20014;SDS011;61787;42.022;23.078;2023-12-04T04:14:44;17.13;;;8.77;;
20014;SDS011;61787;42.022;23.078;2023-12-04T04:15:46;14.70;;;7.93;;
20014;SDS011;61787;42.022;23.078;2023-12-04T04:16:47;14.40;;;8.40;;
20014;SDS011;61787;42.022;23.078;2023-12-04T04:17:49;13.30;;;7.97;;
20014;SDS011;61787;42.022;23.078;2023-12-04T04:18:51;14.77;;;8.17;;
20014;SDS011;61787;42.022;23.078;2023-12-04T04:19:53;17.03;;;7.97;;
20014;SDS011;61787;42.022;23.078;2023-12-04T04:20:55;16.77;;;7.80;;
20014;SDS011;61787;42.022;23.078;2023-12-04T04:21:56;18.27;;;8.30;;
20014;SDS011;61787;42.022;23.078;2023-12-04T04:22:58;13.93;;;8.07;;
20014;SDS011;61787;42.022;23.078;2023-12-04T04:24:00;14.30;;;7.90;;
20014;SDS011;61787;42.022;23.078;2023-12-04T04:25:02;13.90;;;7.13;;
20014;SDS011;61787;42.022;23.078;2023-12-04T04:26:04;13.67;;;7.90;;
20014;SDS011;61787;42.022;23.078;2023-12-04T04:27:05;16.77;;;7.83;;
20014;SDS011;61787;42.022;23.078;2023-12-04T04:28:07;13.77;;;7.57;;
20014;SDS011;61787;42.022;23.078;2023-12-04T04:29:09;14.87;;;8.00;;
20014;SDS011;61787;42.022;23.078;2023-12-04T04:30:11;14.33;;;7.83;;
20014;SDS011;61787;42.022;23.078;2023-12-04T04:31:14;18.93;;;8.00;;
20014;SDS011;61787;42.022;23.078;2023-12-04T04:32:16;13.13;;;7.47;;
20014;SDS011;61787;42.022;23.078;2023-12-04T04:33:18;16.73;;;8.23;;
20014;SDS011;61787;42.022;23.078;2023-12-04T04:34:21;14.67;;;7.83;;
20014;SDS011;61787;42.022;23.078;2023-12-04T04:35:23;15.47;;;7.03;;
20014;SDS011;61787;42.022;23.078;2023-12-04T04:36:25;13.57;;;7.50;;
20014;SDS011;61787;42.022;23.078;2023-12-04T04:37:28;13.60;;;7.47;;
20014;SDS011;61787;42.022;23.078;2023-12-04T04:38:29;16.83;;;6.77;;
20014;SDS011;61787;42.022;23.078;2023-12-04T04:39:31;14.50;;;7.40;;
20014;SDS011;61787;42.022;23.078;2023-12-04T04:40:33;13.53;;;7.43;;
20014;SDS011;61787;42.022;23.078;2023-12-04T04:41:35;15.97;;;7.37;;
20014;SDS011;61787;42.022;23.078;2023-12-04T04:42:36;13.50;;;7.60;;
20014;SDS011;61787;42.022;23.078;2023-12-04T04:43:38;12.37;;;7.00;;
20014;SDS011;61787;42.022;23.078;2023-12-04T04:44:40;11.33;;;6.33;;
20014;SDS011;61787;42.022;23.078;2023-12-04T04:45:41;14.00;;;7.07;;
20014;SDS011;61787;42.022;23.078;2023-12-04T04:46:43;13.67;;;6.77;;
20014;SDS011;61787;42.022;23.078;2023-12-04T04:47:45;14.73;;;6.93;;
20014;SDS011;61787;42.022;23.078;2023-12-04T04:48:47;11.87;;;6.80;;
20014;SDS011;61787;42.022;23.078;2023-12-04T04:49:48;13.00;;;7.17;;
20014;SDS011;61787;42.022;23.078;2023-12-04T04:50:50;14.57;;;7.03;;
20014;SDS011;61787;42.022;23.078;2023-12-04T04:51:52;11.77;;;6.63;;
20014;SDS011;61787;42.022;23.078;2023-12-04T04:52:53;14.63;;;7.07;;
20014;SDS011;61787;42.022;23.078;2023-12-04T04:53:55;14.03;;;6.97;;
20014;SDS011;61787;42.022;23.078;2023-12-04T04:54:57;13.67;;;6.87;;
20014;SDS011;61787;42.022;23.078;2023-12-04T04:55:59;14.63;;;6.57;;
20014;SDS011;61787;42.022;23.078;2023-12-04T04:57:01;15.70;;;6.80;;
20014;SDS011;61787;42.022;23.078;2023-12-04T04:58:02;12.37;;;6.27;;
20014;SDS011;61787;42.022;23.078;2023-12-04T04:59:04;15.63;;;6.77;;
20014;SDS011;61787;42.022;23.078;2023-12-04T05:00:06;13.20;;;5.83;;
20014;SDS011;61787;42.022;23.078;2023-12-04T05:01:08;16.50;;;6.10;;
20014;SDS011;61787;42.022;23.078;2023-12-04T05:02:10;13.03;;;6.47;;
20014;SDS011;61787;42.022;23.078;2023-12-04T05:03:12;11.13;;;6.10;;
20014;SDS011;61787;42.022;23.078;2023-12-04T05:04:13;12.70;;;6.10;;
20014;SDS011;61787;42.022;23.078;2023-12-04T05:05:15;15.17;;;7.27;;
20014;SDS011;61787;42.022;23.078;2023-12-04T05:06:17;12.93;;;6.93;;
20014;SDS011;61787;42.022;23.078;2023-12-04T05:07:19;13.70;;;6.80;;
20014;SDS011;61787;42.022;23.078;2023-12-04T05:08:20;22.20;;;7.47;;
20014;SDS011;61787;42.022;23.078;2023-12-04T05:09:22;14.27;;;7.20;;
20014;SDS011;61787;42.022;23.078;2023-12-04T05:10:24;14.37;;;6.73;;
20014;SDS011;61787;42.022;23.078;2023-12-04T05:11:25;15.70;;;6.73;;
20014;SDS011;61787;42.022;23.078;2023-12-04T05:12:27;14.77;;;6.70;;
20014;SDS011;61787;42.022;23.078;2023-12-04T05:13:29;18.27;;;7.20;;
20014;SDS011;61787;42.022;23.078;2023-12-04T05:14:31;14.20;;;7.27;;
20014;SDS011;61787;42.022;23.078;2023-12-04T05:15:33;14.27;;;7.47;;
20014;SDS011;61787;42.022;23.078;2023-12-04T05:16:36;14.73;;;6.93;;
20014;SDS011;61787;42.022;23.078;2023-12-04T05:17:37;14.00;;;6.67;;
20014;SDS011;61787;42.022;23.078;2023-12-04T05:18:39;14.73;;;6.57;;
20014;SDS011;61787;42.022;23.078;2023-12-04T05:19:41;12.07;;;6.87;;
20014;SDS011;61787;42.022;23.078;2023-12-04T05:20:43;15.07;;;6.67;;
20014;SDS011;61787;42.022;23.078;2023-12-04T05:21:44;12.33;;;6.67;;
20014;SDS011;61787;42.022;23.078;2023-12-04T05:22:46;16.27;;;6.70;;
20014;SDS011;61787;42.022;23.078;2023-12-04T05:23:48;13.00;;;6.80;;
20014;SDS011;61787;42.022;23.078;2023-12-04T05:24:50;19.63;;;6.30;;
20014;SDS011;61787;42.022;23.078;2023-12-04T05:25:52;17.60;;;7.07;;
20014;SDS011;61787;42.022;23.078;2023-12-04T05:26:53;16.73;;;6.53;;
20014;SDS011;61787;42.022;23.078;2023-12-04T05:27:55;12.83;;;6.93;;
20014;SDS011;61787;42.022;23.078;2023-12-04T05:28:57;17.10;;;6.63;;
20014;SDS011;61787;42.022;23.078;2023-12-04T05:29:58;14.80;;;6.77;;
20014;SDS011;61787;42.022;23.078;2023-12-04T05:31:00;14.97;;;6.90;;
20014;SDS011;61787;42.022;23.078;2023-12-04T05:32:02;12.87;;;7.30;;
20014;SDS011;61787;42.022;23.078;2023-12-04T05:33:04;19.67;;;7.60;;
20014;SDS011;61787;42.022;23.078;2023-12-04T05:34:06;14.87;;;7.30;;
20014;SDS011;61787;42.022;23.078;2023-12-04T05:35:08;14.53;;;6.90;;
20014;SDS011;61787;42.022;23.078;2023-12-04T05:36:09;14.47;;;6.40;;
20014;SDS011;61787;42.022;23.078;2023-12-04T05:37:11;15.73;;;7.27;;
20014;SDS011;61787;42.022;23.078;2023-12-04T05:38:13;13.23;;;7.07;;
20014;SDS011;61787;42.022;23.078;2023-12-04T05:39:15;15.03;;;6.27;;
20014;SDS011;61787;42.022;23.078;2023-12-04T05:40:17;15.40;;;6.97;;
20014;SDS011;61787;42.022;23.078;2023-12-04T05:41:18;10.87;;;6.33;;
20014;SDS011;61787;42.022;23.078;2023-12-04T05:42:20;12.87;;;6.57;;
20014;SDS011;61787;42.022;23.078;2023-12-04T05:43:22;12.20;;;6.87;;
20014;SDS011;61787;42.022;23.078;2023-12-04T05:44:23;14.10;;;7.53;;
20014;SDS011;61787;42.022;23.078;2023-12-04T05:45:25;13.13;;;6.67;;
20014;SDS011;61787;42.022;23.078;2023-12-04T05:46:27;15.97;;;7.97;;
20014;SDS011;61787;42.022;23.078;2023-12-04T05:47:29;14.97;;;6.93;;
20014;SDS011;61787;42.022;23.078;2023-12-04T05:48:30;12.07;;;6.63;;
20014;SDS011;61787;42.022;23.078;2023-12-04T05:49:32;11.83;;;6.60;;
20014;SDS011;61787;42.022;23.078;2023-12-04T05:50:34;11.70;;;6.77;;
20014;SDS011;61787;42.022;23.078;2023-12-04T05:51:36;14.00;;;6.97;;
20014;SDS011;61787;42.022;23.078;2023-12-04T05:52:38;13.57;;;7.60;;
20014;SDS011;61787;42.022;23.078;2023-12-04T05:53:40;15.83;;;7.63;;
20014;SDS011;61787;42.022;23.078;2023-12-04T05:54:41;12.43;;;6.70;;
20014;SDS011;61787;42.022;23.078;2023-12-04T05:55:43;13.30;;;6.73;;
20014;SDS011;61787;42.022;23.078;2023-12-04T05:56:46;12.80;;;7.27;;
20014;SDS011;61787;42.022;23.078;2023-12-04T05:57:48;16.63;;;6.97;;
20014;SDS011;61787;42.022;23.078;2023-12-04T05:58:49;13.47;;;7.63;;
20014;SDS011;61787;42.022;23.078;2023-12-04T05:59:51;11.20;;;6.40;;
20014;SDS011;61787;42.022;23.078;2023-12-04T06:00:53;11.67;;;7.10;;
20014;SDS011;61787;42.022;23.078;2023-12-04T06:01:54;14.40;;;7.47;;
20014;SDS011;61787;42.022;23.078;2023-12-04T06:02:56;13.47;;;7.50;;
20014;SDS011;61787;42.022;23.078;2023-12-04T06:03:58;12.43;;;7.20;;